sensor_id;sensor_type;location;lat;lon;timestamp;temperature;humidity
45945;DHT22;31655;48.972;10.686;2022-07-29T00:01:56;19.90;83.80
45945;DHT22;31655;48.972;10.686;2022-07-29T00:09:24;19.70;85.40
45945;DHT22;31655;48.972;10.686;2022-07-29T00:11:51;19.70;86.10
45945;DHT22;31655;48.972;10.686;2022-07-29T00:14:21;19.60;86.60
45945;DHT22;31655;48.972;10.686;2022-07-29T00:16:47;19.60;87.60
45945;DHT22;31655;48.972;10.686;2022-07-29T00:19:13;19.60;88.00
45945;DHT22;31655;48.972;10.686;2022-07-29T00:21:39;19.60;88.90
45945;DHT22;31655;48.972;10.686;2022-07-29T00:24:07;19.50;89.80
45945;DHT22;31655;48.972;10.686;2022-07-29T00:26:32;19.50;90.30
45945;DHT22;31655;48.972;10.686;2022-07-29T00:29:02;19.40;90.80
45945;DHT22;31655;48.972;10.686;2022-07-29T00:31:28;19.30;91.20
45945;DHT22;31655;48.972;10.686;2022-07-29T00:33:56;19.30;91.50
45945;DHT22;31655;48.972;10.686;2022-07-29T00:36:22;19.30;92.10
45945;DHT22;31655;48.972;10.686;2022-07-29T00:38:49;19.20;92.90
45945;DHT22;31655;48.972;10.686;2022-07-29T00:41:17;19.20;94.60
45945;DHT22;31655;48.972;10.686;2022-07-29T00:43:45;19.20;94.80
45945;DHT22;31655;48.972;10.686;2022-07-29T00:46:11;19.20;96.40
45945;DHT22;31655;48.972;10.686;2022-07-29T00:48:37;19.20;98.20
45945;DHT22;31655;48.972;10.686;2022-07-29T00:51:05;19.30;99.90
45945;DHT22;31655;48.972;10.686;2022-07-29T00:53:33;19.30;99.90
45945;DHT22;31655;48.972;10.686;2022-07-29T00:56:01;19.90;99.90
45945;DHT22;31655;48.972;10.686;2022-07-29T00:58:40;19.40;99.90
45945;DHT22;31655;48.972;10.686;2022-07-29T01:01:06;19.40;99.90
45945;DHT22;31655;48.972;10.686;2022-07-29T01:03:32;19.30;99.90
45945;DHT22;31655;48.972;10.686;2022-07-29T01:05:58;19.30;99.90
45945;DHT22;31655;48.972;10.686;2022-07-29T01:08:24;19.30;99.90
45945;DHT22;31655;48.972;10.686;2022-07-29T01:10:51;19.30;99.90
45945;DHT22;31655;48.972;10.686;2022-07-29T01:13:17;19.30;99.90
45945;DHT22;31655;48.972;10.686;2022-07-29T01:15:47;19.20;99.90
45945;DHT22;31655;48.972;10.686;2022-07-29T01:18:16;19.20;99.90
45945;DHT22;31655;48.972;10.686;2022-07-29T01:31:56;19.20;99.90
45945;DHT22;31655;48.972;10.686;2022-07-29T01:34:27;19.00;99.90
45945;DHT22;31655;48.972;10.686;2022-07-29T01:39:35;18.80;99.90
45945;DHT22;31655;48.972;10.686;2022-07-29T01:44:57;18.70;99.90
45945;DHT22;31655;48.972;10.686;2022-07-29T01:47:31;18.70;99.90
45945;DHT22;31655;48.972;10.686;2022-07-29T01:49:58;18.60;99.90
45945;DHT22;31655;48.972;10.686;2022-07-29T01:52:34;18.60;99.90
45945;DHT22;31655;48.972;10.686;2022-07-29T01:55:07;18.60;99.90
45945;DHT22;31655;48.972;10.686;2022-07-29T01:57:36;18.50;99.90
45945;DHT22;31655;48.972;10.686;2022-07-29T02:00:04;18.50;99.90
45945;DHT22;31655;48.972;10.686;2022-07-29T02:02:32;18.40;99.90
45945;DHT22;31655;48.972;10.686;2022-07-29T02:05:00;18.50;99.90
45945;DHT22;31655;48.972;10.686;2022-07-29T02:07:29;18.40;99.90
45945;DHT22;31655;48.972;10.686;2022-07-29T02:09:58;18.40;99.90
45945;DHT22;31655;48.972;10.686;2022-07-29T02:12:26;18.40;99.90
45945;DHT22;31655;48.972;10.686;2022-07-29T02:14:55;18.50;99.90
45945;DHT22;31655;48.972;10.686;2022-07-29T02:17:25;18.40;99.90
45945;DHT22;31655;48.972;10.686;2022-07-29T02:19:54;18.40;99.90
45945;DHT22;31655;48.972;10.686;2022-07-29T02:22:21;18.30;99.90
45945;DHT22;31655;48.972;10.686;2022-07-29T02:24:48;18.30;99.90
45945;DHT22;31655;48.972;10.686;2022-07-29T02:27:17;18.20;99.90
45945;DHT22;31655;48.972;10.686;2022-07-29T02:29:45;18.20;99.90
45945;DHT22;31655;48.972;10.686;2022-07-29T02:32:13;18.20;99.90
45945;DHT22;31655;48.972;10.686;2022-07-29T02:34:41;18.30;99.90
45945;DHT22;31655;48.972;10.686;2022-07-29T02:37:10;20.20;99.90
45945;DHT22;31655;48.972;10.686;2022-07-29T02:39:37;18.40;99.90
45945;DHT22;31655;48.972;10.686;2022-07-29T02:42:07;18.40;99.90
45945;DHT22;31655;48.972;10.686;2022-07-29T02:44:34;18.20;99.90
45945;DHT22;31655;48.972;10.686;2022-07-29T02:47:16;18.20;99.90
45945;DHT22;31655;48.972;10.686;2022-07-29T02:50:04;18.10;99.90
45945;DHT22;31655;48.972;10.686;2022-07-29T02:55:14;18.10;99.90
45945;DHT22;31655;48.972;10.686;2022-07-29T02:57:44;18.10;99.90
45945;DHT22;31655;48.972;10.686;2022-07-29T03:00:12;18.20;99.90
45945;DHT22;31655;48.972;10.686;2022-07-29T03:02:40;18.20;99.90
45945;DHT22;31655;48.972;10.686;2022-07-29T03:05:11;18.10;99.90
45945;DHT22;31655;48.972;10.686;2022-07-29T03:07:41;18.10;99.90
45945;DHT22;31655;48.972;10.686;2022-07-29T03:10:08;18.10;99.90
45945;DHT22;31655;48.972;10.686;2022-07-29T03:12:35;18.00;99.90
45945;DHT22;31655;48.972;10.686;2022-07-29T03:15:01;18.10;99.90
45945;DHT22;31655;48.972;10.686;2022-07-29T03:17:27;18.10;99.90
45945;DHT22;31655;48.972;10.686;2022-07-29T03:19:53;18.10;99.90
45945;DHT22;31655;48.972;10.686;2022-07-29T03:22:20;18.80;99.90
45945;DHT22;31655;48.972;10.686;2022-07-29T03:24:45;18.00;99.90
45945;DHT22;31655;48.972;10.686;2022-07-29T03:27:11;18.00;99.90
45945;DHT22;31655;48.972;10.686;2022-07-29T03:29:37;18.00;99.90
45945;DHT22;31655;48.972;10.686;2022-07-29T03:32:04;18.00;99.90
45945;DHT22;31655;48.972;10.686;2022-07-29T03:34:30;17.90;99.90
45945;DHT22;31655;48.972;10.686;2022-07-29T03:36:56;19.70;99.90
45945;DHT22;31655;48.972;10.686;2022-07-29T03:39:24;17.90;99.90
45945;DHT22;31655;48.972;10.686;2022-07-29T03:41:55;17.90;99.90
45945;DHT22;31655;48.972;10.686;2022-07-29T03:44:21;17.90;99.90
45945;DHT22;31655;48.972;10.686;2022-07-29T03:46:48;17.90;99.90
45945;DHT22;31655;48.972;10.686;2022-07-29T03:49:16;18.00;99.90
45945;DHT22;31655;48.972;10.686;2022-07-29T03:51:44;18.00;99.90
45945;DHT22;31655;48.972;10.686;2022-07-29T03:54:10;18.00;99.90
45945;DHT22;31655;48.972;10.686;2022-07-29T03:56:42;18.00;99.90
45945;DHT22;31655;48.972;10.686;2022-07-29T03:59:08;17.90;99.90
45945;DHT22;31655;48.972;10.686;2022-07-29T04:01:35;17.70;99.90
45945;DHT22;31655;48.972;10.686;2022-07-29T04:04:01;18.00;99.90
45945;DHT22;31655;48.972;10.686;2022-07-29T04:06:27;17.90;99.90
45945;DHT22;31655;48.972;10.686;2022-07-29T04:08:53;17.90;99.90
45945;DHT22;31655;48.972;10.686;2022-07-29T04:11:18;17.90;99.90
45945;DHT22;31655;48.972;10.686;2022-07-29T04:13:44;17.90;99.90
45945;DHT22;31655;48.972;10.686;2022-07-29T04:16:10;17.90;99.90
45945;DHT22;31655;48.972;10.686;2022-07-29T04:18:35;19.40;99.90
45945;DHT22;31655;48.972;10.686;2022-07-29T04:21:01;18.00;99.90
45945;DHT22;31655;48.972;10.686;2022-07-29T04:23:29;18.10;99.90
45945;DHT22;31655;48.972;10.686;2022-07-29T04:25:57;18.10;99.90
45945;DHT22;31655;48.972;10.686;2022-07-29T04:28:23;18.00;99.90
45945;DHT22;31655;48.972;10.686;2022-07-29T04:30:48;18.10;99.90
45945;DHT22;31655;48.972;10.686;2022-07-29T04:33:14;18.20;99.90
45945;DHT22;31655;48.972;10.686;2022-07-29T04:35:40;18.20;99.90
45945;DHT22;31655;48.972;10.686;2022-07-29T04:38:06;18.40;99.90
45945;DHT22;31655;48.972;10.686;2022-07-29T04:40:32;18.70;99.90
45945;DHT22;31655;48.972;10.686;2022-07-29T04:42:59;18.70;99.90
45945;DHT22;31655;48.972;10.686;2022-07-29T04:45:25;18.90;99.90
45945;DHT22;31655;48.972;10.686;2022-07-29T04:47:50;19.10;99.90
45945;DHT22;31655;48.972;10.686;2022-07-29T04:50:16;19.10;99.90
45945;DHT22;31655;48.972;10.686;2022-07-29T04:52:42;19.40;99.90
45945;DHT22;31655;48.972;10.686;2022-07-29T04:55:08;19.50;99.90
45945;DHT22;31655;48.972;10.686;2022-07-29T04:57:34;19.60;99.90
45945;DHT22;31655;48.972;10.686;2022-07-29T04:59:59;19.80;99.90
45945;DHT22;31655;48.972;10.686;2022-07-29T05:02:25;20.00;99.90
45945;DHT22;31655;48.972;10.686;2022-07-29T05:04:51;20.30;99.90
45945;DHT22;31655;48.972;10.686;2022-07-29T05:07:16;21.10;99.90
45945;DHT22;31655;48.972;10.686;2022-07-29T05:09:42;22.70;99.90
45945;DHT22;31655;48.972;10.686;2022-07-29T05:12:08;25.00;99.90
45945;DHT22;31655;48.972;10.686;2022-07-29T05:14:33;25.80;98.20
45945;DHT22;31655;48.972;10.686;2022-07-29T05:16:59;29.00;89.50
45945;DHT22;31655;48.972;10.686;2022-07-29T05:19:25;29.10;89.40
45945;DHT22;31655;48.972;10.686;2022-07-29T05:21:50;29.90;83.00
45945;DHT22;31655;48.972;10.686;2022-07-29T05:24:16;30.40;79.00
45945;DHT22;31655;48.972;10.686;2022-07-29T05:26:42;30.90;75.50
45945;DHT22;31655;48.972;10.686;2022-07-29T05:29:08;30.70;74.10
45945;DHT22;31655;48.972;10.686;2022-07-29T05:31:33;31.10;73.70
45945;DHT22;31655;48.972;10.686;2022-07-29T05:33:59;31.50;71.70
45945;DHT22;31655;48.972;10.686;2022-07-29T05:36:25;31.20;70.90
45945;DHT22;31655;48.972;10.686;2022-07-29T05:38:51;30.80;71.00
45945;DHT22;31655;48.972;10.686;2022-07-29T05:41:20;29.80;72.70
45945;DHT22;31655;48.972;10.686;2022-07-29T05:43:46;29.40;73.70
45945;DHT22;31655;48.972;10.686;2022-07-29T05:46:12;29.00;73.90
45945;DHT22;31655;48.972;10.686;2022-07-29T05:48:39;27.90;75.40
45945;DHT22;31655;48.972;10.686;2022-07-29T05:51:05;27.00;77.80
45945;DHT22;31655;48.972;10.686;2022-07-29T05:53:30;26.60;79.30
45945;DHT22;31655;48.972;10.686;2022-07-29T05:55:56;26.70;80.00
45945;DHT22;31655;48.972;10.686;2022-07-29T05:58:21;26.70;80.90
45945;DHT22;31655;48.972;10.686;2022-07-29T06:00:47;26.60;80.10
45945;DHT22;31655;48.972;10.686;2022-07-29T06:03:13;27.40;80.00
45945;DHT22;31655;48.972;10.686;2022-07-29T06:05:38;27.30;78.40
45945;DHT22;31655;48.972;10.686;2022-07-29T06:08:04;27.40;78.30
45945;DHT22;31655;48.972;10.686;2022-07-29T06:10:34;27.00;79.60
45945;DHT22;31655;48.972;10.686;2022-07-29T06:13:00;27.10;79.40
45945;DHT22;31655;48.972;10.686;2022-07-29T06:15:26;27.10;78.90
45945;DHT22;31655;48.972;10.686;2022-07-29T06:17:51;26.90;79.50
45945;DHT22;31655;48.972;10.686;2022-07-29T06:20:18;25.70;80.90
45945;DHT22;31655;48.972;10.686;2022-07-29T06:22:43;25.70;81.60
45945;DHT22;31655;48.972;10.686;2022-07-29T06:25:09;25.30;82.40
45945;DHT22;31655;48.972;10.686;2022-07-29T06:27:35;25.10;83.80
45945;DHT22;31655;48.972;10.686;2022-07-29T06:30:00;26.10;85.90
45945;DHT22;31655;48.972;10.686;2022-07-29T06:32:27;24.40;86.10
45945;DHT22;31655;48.972;10.686;2022-07-29T06:34:52;24.10;87.10
45945;DHT22;31655;48.972;10.686;2022-07-29T06:37:18;24.10;88.90
45945;DHT22;31655;48.972;10.686;2022-07-29T06:39:43;24.10;90.20
45945;DHT22;31655;48.972;10.686;2022-07-29T06:44:35;24.10;90.60
45945;DHT22;31655;48.972;10.686;2022-07-29T06:47:01;24.30;90.70
45945;DHT22;31655;48.972;10.686;2022-07-29T06:49:27;24.50;90.40
45945;DHT22;31655;48.972;10.686;2022-07-29T06:51:53;24.90;89.40
45945;DHT22;31655;48.972;10.686;2022-07-29T06:54:19;26.70;88.70
45945;DHT22;31655;48.972;10.686;2022-07-29T06:56:45;26.20;84.80
45945;DHT22;31655;48.972;10.686;2022-07-29T06:59:11;27.00;83.40
45945;DHT22;31655;48.972;10.686;2022-07-29T07:01:38;27.20;82.10
45945;DHT22;31655;48.972;10.686;2022-07-29T07:04:04;26.70;81.30
45945;DHT22;31655;48.972;10.686;2022-07-29T07:06:30;26.60;80.70
45945;DHT22;31655;48.972;10.686;2022-07-29T07:08:55;26.70;80.70
45945;DHT22;31655;48.972;10.686;2022-07-29T07:11:21;26.70;80.70
45945;DHT22;31655;48.972;10.686;2022-07-29T07:13:47;26.40;80.80
45945;DHT22;31655;48.972;10.686;2022-07-29T07:16:12;26.70;80.80
45945;DHT22;31655;48.972;10.686;2022-07-29T07:18:38;27.00;79.60
45945;DHT22;31655;48.972;10.686;2022-07-29T07:21:03;27.10;79.90
45945;DHT22;31655;48.972;10.686;2022-07-29T07:23:30;27.00;79.30
45945;DHT22;31655;48.972;10.686;2022-07-29T07:25:55;27.50;80.40
45945;DHT22;31655;48.972;10.686;2022-07-29T07:28:21;27.80;79.50
45945;DHT22;31655;48.972;10.686;2022-07-29T07:30:47;28.40;78.70
45945;DHT22;31655;48.972;10.686;2022-07-29T07:33:13;28.50;77.90
45945;DHT22;31655;48.972;10.686;2022-07-29T07:35:38;28.80;77.50
45945;DHT22;31655;48.972;10.686;2022-07-29T07:38:04;28.70;77.40
45945;DHT22;31655;48.972;10.686;2022-07-29T07:40:31;28.60;77.70
45945;DHT22;31655;48.972;10.686;2022-07-29T07:42:56;28.50;77.40
45945;DHT22;31655;48.972;10.686;2022-07-29T07:45:22;28.90;77.30
45945;DHT22;31655;48.972;10.686;2022-07-29T07:47:49;29.40;76.60
45945;DHT22;31655;48.972;10.686;2022-07-29T07:50:14;29.20;75.80
45945;DHT22;31655;48.972;10.686;2022-07-29T07:53:07;29.40;75.30
45945;DHT22;31655;48.972;10.686;2022-07-29T07:55:32;29.20;74.90
45945;DHT22;31655;48.972;10.686;2022-07-29T07:57:58;28.80;75.30
45945;DHT22;31655;48.972;10.686;2022-07-29T08:00:23;29.20;75.50
45945;DHT22;31655;48.972;10.686;2022-07-29T08:02:49;29.60;75.20
45945;DHT22;31655;48.972;10.686;2022-07-29T08:05:15;30.10;74.20
45945;DHT22;31655;48.972;10.686;2022-07-29T08:07:45;29.80;74.40
45945;DHT22;31655;48.972;10.686;2022-07-29T08:10:11;29.90;75.20
45945;DHT22;31655;48.972;10.686;2022-07-29T08:12:37;29.60;74.10
45945;DHT22;31655;48.972;10.686;2022-07-29T08:15:03;28.90;75.60
45945;DHT22;31655;48.972;10.686;2022-07-29T08:17:28;28.50;76.90
45945;DHT22;31655;48.972;10.686;2022-07-29T08:19:54;29.10;77.90
45945;DHT22;31655;48.972;10.686;2022-07-29T08:22:20;29.80;76.00
45945;DHT22;31655;48.972;10.686;2022-07-29T08:24:45;30.20;75.70
45945;DHT22;31655;48.972;10.686;2022-07-29T08:27:21;30.40;74.00
45945;DHT22;31655;48.972;10.686;2022-07-29T08:29:47;30.00;74.40
45945;DHT22;31655;48.972;10.686;2022-07-29T08:32:13;30.20;75.00
45945;DHT22;31655;48.972;10.686;2022-07-29T08:34:38;31.20;73.60
45945;DHT22;31655;48.972;10.686;2022-07-29T08:37:04;30.90;72.70
45945;DHT22;31655;48.972;10.686;2022-07-29T08:39:30;30.70;72.40
45945;DHT22;31655;48.972;10.686;2022-07-29T08:41:55;31.40;73.00
45945;DHT22;31655;48.972;10.686;2022-07-29T08:44:21;31.70;70.80
45945;DHT22;31655;48.972;10.686;2022-07-29T08:46:48;32.50;69.30
45945;DHT22;31655;48.972;10.686;2022-07-29T08:49:14;32.70;68.90
45945;DHT22;31655;48.972;10.686;2022-07-29T08:51:40;32.30;69.10
45945;DHT22;31655;48.972;10.686;2022-07-29T08:54:08;32.70;68.60
45945;DHT22;31655;48.972;10.686;2022-07-29T08:56:34;33.10;67.20
45945;DHT22;31655;48.972;10.686;2022-07-29T08:59:03;33.00;66.70
45945;DHT22;31655;48.972;10.686;2022-07-29T09:01:32;33.30;66.60
45945;DHT22;31655;48.972;10.686;2022-07-29T09:04:01;33.40;66.10
45945;DHT22;31655;48.972;10.686;2022-07-29T09:06:31;34.20;64.90
45945;DHT22;31655;48.972;10.686;2022-07-29T09:08:59;33.70;64.90
45945;DHT22;31655;48.972;10.686;2022-07-29T09:11:25;33.30;64.60
45945;DHT22;31655;48.972;10.686;2022-07-29T09:13:51;33.00;66.00
45945;DHT22;31655;48.972;10.686;2022-07-29T09:16:16;32.90;66.50
45945;DHT22;31655;48.972;10.686;2022-07-29T09:18:44;34.00;64.60
45945;DHT22;31655;48.972;10.686;2022-07-29T09:21:13;34.30;63.30
45945;DHT22;31655;48.972;10.686;2022-07-29T09:24:04;33.90;62.30
45945;DHT22;31655;48.972;10.686;2022-07-29T09:26:31;34.50;61.50
45945;DHT22;31655;48.972;10.686;2022-07-29T09:28:58;35.40;61.90
45945;DHT22;31655;48.972;10.686;2022-07-29T09:31:37;34.90;61.10
45945;DHT22;31655;48.972;10.686;2022-07-29T09:34:03;34.70;62.80
45945;DHT22;31655;48.972;10.686;2022-07-29T09:36:29;34.30;61.80
45945;DHT22;31655;48.972;10.686;2022-07-29T09:38:59;34.50;61.90
45945;DHT22;31655;48.972;10.686;2022-07-29T09:41:26;34.50;61.20
45945;DHT22;31655;48.972;10.686;2022-07-29T09:43:59;34.30;61.90
45945;DHT22;31655;48.972;10.686;2022-07-29T09:46:25;34.40;61.80
45945;DHT22;31655;48.972;10.686;2022-07-29T09:49:11;34.30;61.10
45945;DHT22;31655;48.972;10.686;2022-07-29T09:51:38;34.00;61.70
45945;DHT22;31655;48.972;10.686;2022-07-29T09:54:22;33.40;61.70
45945;DHT22;31655;48.972;10.686;2022-07-29T09:56:48;33.80;61.30
45945;DHT22;31655;48.972;10.686;2022-07-29T09:59:14;34.10;60.00
45945;DHT22;31655;48.972;10.686;2022-07-29T10:01:40;34.10;60.50
45945;DHT22;31655;48.972;10.686;2022-07-29T10:04:06;34.10;62.30
45945;DHT22;31655;48.972;10.686;2022-07-29T10:06:32;34.20;60.80
45945;DHT22;31655;48.972;10.686;2022-07-29T10:09:10;34.30;60.60
45945;DHT22;31655;48.972;10.686;2022-07-29T10:11:37;34.30;60.50
45945;DHT22;31655;48.972;10.686;2022-07-29T10:14:03;34.40;60.60
45945;DHT22;31655;48.972;10.686;2022-07-29T10:16:30;34.50;60.40
45945;DHT22;31655;48.972;10.686;2022-07-29T10:18:59;34.70;60.30
45945;DHT22;31655;48.972;10.686;2022-07-29T10:21:26;34.50;59.00
45945;DHT22;31655;48.972;10.686;2022-07-29T10:23:53;34.80;60.40
45945;DHT22;31655;48.972;10.686;2022-07-29T10:26:19;34.50;61.10
45945;DHT22;31655;48.972;10.686;2022-07-29T10:28:45;33.90;62.10
45945;DHT22;31655;48.972;10.686;2022-07-29T10:31:20;33.00;62.30
45945;DHT22;31655;48.972;10.686;2022-07-29T10:42:24;30.80;67.00
45945;DHT22;31655;48.972;10.686;2022-07-29T10:44:51;31.50;68.30
45945;DHT22;31655;48.972;10.686;2022-07-29T10:50:03;31.00;70.60
45945;DHT22;31655;48.972;10.686;2022-07-29T10:52:52;31.20;69.00
45945;DHT22;31655;48.972;10.686;2022-07-29T10:55:35;32.40;68.10
45945;DHT22;31655;48.972;10.686;2022-07-29T10:58:20;32.60;68.60
45945;DHT22;31655;48.972;10.686;2022-07-29T11:00:47;32.60;67.20
45945;DHT22;31655;48.972;10.686;2022-07-29T11:03:42;32.20;67.40
45945;DHT22;31655;48.972;10.686;2022-07-29T11:06:09;31.50;68.50
45945;DHT22;31655;48.972;10.686;2022-07-29T11:08:35;30.80;69.20
45945;DHT22;31655;48.972;10.686;2022-07-29T11:13:45;30.70;70.70
45945;DHT22;31655;48.972;10.686;2022-07-29T11:16:12;30.90;70.10
45945;DHT22;31655;48.972;10.686;2022-07-29T11:21:40;31.80;69.20
45945;DHT22;31655;48.972;10.686;2022-07-29T11:24:23;32.20;65.80
45945;DHT22;31655;48.972;10.686;2022-07-29T11:29:40;31.60;64.80
45945;DHT22;31655;48.972;10.686;2022-07-29T11:32:12;31.50;66.10
45945;DHT22;31655;48.972;10.686;2022-07-29T11:34:40;31.80;63.90
45945;DHT22;31655;48.972;10.686;2022-07-29T11:39:38;31.90;62.50
45945;DHT22;31655;48.972;10.686;2022-07-29T11:45:02;31.90;63.30
45945;DHT22;31655;48.972;10.686;2022-07-29T11:47:32;31.30;63.20
45945;DHT22;31655;48.972;10.686;2022-07-29T11:50:00;31.00;64.90
45945;DHT22;31655;48.972;10.686;2022-07-29T11:52:41;31.30;65.60
45945;DHT22;31655;48.972;10.686;2022-07-29T11:55:19;31.50;65.90
45945;DHT22;31655;48.972;10.686;2022-07-29T11:57:50;30.80;66.30
45945;DHT22;31655;48.972;10.686;2022-07-29T12:00:26;30.60;67.50
45945;DHT22;31655;48.972;10.686;2022-07-29T12:02:53;30.50;67.40
45945;DHT22;31655;48.972;10.686;2022-07-29T12:05:19;30.20;68.20
45945;DHT22;31655;48.972;10.686;2022-07-29T12:07:47;30.00;68.60
45945;DHT22;31655;48.972;10.686;2022-07-29T12:10:13;29.90;68.80
45945;DHT22;31655;48.972;10.686;2022-07-29T12:12:39;30.00;68.00
45945;DHT22;31655;48.972;10.686;2022-07-29T12:15:18;30.00;68.50
45945;DHT22;31655;48.972;10.686;2022-07-29T12:17:46;30.10;69.50
45945;DHT22;31655;48.972;10.686;2022-07-29T12:20:12;29.80;69.50
45945;DHT22;31655;48.972;10.686;2022-07-29T12:22:41;29.50;70.00
45945;DHT22;31655;48.972;10.686;2022-07-29T12:25:14;29.00;72.30
45945;DHT22;31655;48.972;10.686;2022-07-29T12:27:42;28.60;75.50
45945;DHT22;31655;48.972;10.686;2022-07-29T12:30:14;28.00;78.00
45945;DHT22;31655;48.972;10.686;2022-07-29T12:32:46;27.60;82.60
45945;DHT22;31655;48.972;10.686;2022-07-29T12:35:17;26.60;90.10
45945;DHT22;31655;48.972;10.686;2022-07-29T12:37:45;26.40;90.70
45945;DHT22;31655;48.972;10.686;2022-07-29T12:40:15;25.90;92.30
45945;DHT22;31655;48.972;10.686;2022-07-29T12:45:30;25.40;98.70
45945;DHT22;31655;48.972;10.686;2022-07-29T12:47:56;25.60;99.90
45945;DHT22;31655;48.972;10.686;2022-07-29T12:50:22;25.90;99.90
45945;DHT22;31655;48.972;10.686;2022-07-29T12:52:48;26.10;99.90
45945;DHT22;31655;48.972;10.686;2022-07-29T12:55:14;26.20;99.90
45945;DHT22;31655;48.972;10.686;2022-07-29T12:57:50;26.50;99.90
45945;DHT22;31655;48.972;10.686;2022-07-29T13:00:22;26.60;99.90
45945;DHT22;31655;48.972;10.686;2022-07-29T13:02:57;26.80;99.90
45945;DHT22;31655;48.972;10.686;2022-07-29T13:05:23;26.90;99.90
45945;DHT22;31655;48.972;10.686;2022-07-29T13:07:50;27.10;99.90
45945;DHT22;31655;48.972;10.686;2022-07-29T13:10:18;26.90;99.90
45945;DHT22;31655;48.972;10.686;2022-07-29T13:13:03;26.20;99.90
45945;DHT22;31655;48.972;10.686;2022-07-29T13:15:29;26.20;99.90
45945;DHT22;31655;48.972;10.686;2022-07-29T13:17:55;26.10;98.20
45945;DHT22;31655;48.972;10.686;2022-07-29T13:20:25;25.70;97.60
45945;DHT22;31655;48.972;10.686;2022-07-29T13:22:53;25.40;98.00
45945;DHT22;31655;48.972;10.686;2022-07-29T13:27:51;25.10;98.80
45945;DHT22;31655;48.972;10.686;2022-07-29T13:30:16;24.90;98.80
45945;DHT22;31655;48.972;10.686;2022-07-29T13:32:42;24.70;99.70
45945;DHT22;31655;48.972;10.686;2022-07-29T13:35:08;24.60;99.90
45945;DHT22;31655;48.972;10.686;2022-07-29T13:37:35;24.70;99.90
45945;DHT22;31655;48.972;10.686;2022-07-29T13:40:04;24.50;99.90
45945;DHT22;31655;48.972;10.686;2022-07-29T13:42:31;24.60;99.90
45945;DHT22;31655;48.972;10.686;2022-07-29T13:44:57;24.60;99.90
45945;DHT22;31655;48.972;10.686;2022-07-29T13:47:23;24.60;99.90
45945;DHT22;31655;48.972;10.686;2022-07-29T13:49:49;24.90;99.90
45945;DHT22;31655;48.972;10.686;2022-07-29T13:52:15;24.90;99.90
45945;DHT22;31655;48.972;10.686;2022-07-29T13:54:41;25.10;99.90
45945;DHT22;31655;48.972;10.686;2022-07-29T13:57:07;25.10;97.70
45945;DHT22;31655;48.972;10.686;2022-07-29T13:59:32;25.00;97.70
45945;DHT22;31655;48.972;10.686;2022-07-29T14:01:58;26.40;98.70
45945;DHT22;31655;48.972;10.686;2022-07-29T14:04:24;25.10;99.40
45945;DHT22;31655;48.972;10.686;2022-07-29T14:06:51;25.30;98.70
45945;DHT22;31655;48.972;10.686;2022-07-29T14:09:16;24.90;99.40
45945;DHT22;31655;48.972;10.686;2022-07-29T14:11:42;25.30;99.00
45945;DHT22;31655;48.972;10.686;2022-07-29T14:14:08;25.30;99.10
45945;DHT22;31655;48.972;10.686;2022-07-29T14:16:35;25.30;98.60
45945;DHT22;31655;48.972;10.686;2022-07-29T14:19:01;25.30;98.40
45945;DHT22;31655;48.972;10.686;2022-07-29T14:21:27;25.30;98.50
45945;DHT22;31655;48.972;10.686;2022-07-29T14:23:53;25.30;98.70
45945;DHT22;31655;48.972;10.686;2022-07-29T14:26:20;25.30;98.10
45945;DHT22;31655;48.972;10.686;2022-07-29T14:28:46;25.50;97.60
45945;DHT22;31655;48.972;10.686;2022-07-29T14:31:11;25.40;96.30
45945;DHT22;31655;48.972;10.686;2022-07-29T14:33:37;25.70;97.00
45945;DHT22;31655;48.972;10.686;2022-07-29T14:36:03;25.80;97.20
45945;DHT22;31655;48.972;10.686;2022-07-29T14:38:28;26.00;96.40
45945;DHT22;31655;48.972;10.686;2022-07-29T14:40:54;26.00;95.80
45945;DHT22;31655;48.972;10.686;2022-07-29T14:43:19;26.10;94.90
45945;DHT22;31655;48.972;10.686;2022-07-29T14:45:45;26.00;95.60
45945;DHT22;31655;48.972;10.686;2022-07-29T14:48:11;25.70;96.00
45945;DHT22;31655;48.972;10.686;2022-07-29T14:50:37;25.70;95.50
45945;DHT22;31655;48.972;10.686;2022-07-29T14:53:02;25.60;95.20
45945;DHT22;31655;48.972;10.686;2022-07-29T14:55:28;25.40;96.00
45945;DHT22;31655;48.972;10.686;2022-07-29T14:57:54;25.20;95.50
45945;DHT22;31655;48.972;10.686;2022-07-29T15:00:20;25.20;95.30
45945;DHT22;31655;48.972;10.686;2022-07-29T15:02:46;25.20;95.20
45945;DHT22;31655;48.972;10.686;2022-07-29T15:05:12;25.30;94.90
45945;DHT22;31655;48.972;10.686;2022-07-29T15:07:38;25.30;94.80
45945;DHT22;31655;48.972;10.686;2022-07-29T15:10:04;25.20;95.10
45945;DHT22;31655;48.972;10.686;2022-07-29T15:12:31;25.20;95.10
45945;DHT22;31655;48.972;10.686;2022-07-29T15:14:57;25.40;95.00
45945;DHT22;31655;48.972;10.686;2022-07-29T15:17:22;25.10;94.60
45945;DHT22;31655;48.972;10.686;2022-07-29T15:19:48;25.30;95.00
45945;DHT22;31655;48.972;10.686;2022-07-29T15:22:14;25.20;94.80
45945;DHT22;31655;48.972;10.686;2022-07-29T15:24:39;25.20;94.70
45945;DHT22;31655;48.972;10.686;2022-07-29T15:27:05;25.10;95.20
45945;DHT22;31655;48.972;10.686;2022-07-29T15:29:30;25.10;95.50
45945;DHT22;31655;48.972;10.686;2022-07-29T15:31:56;25.00;95.80
45945;DHT22;31655;48.972;10.686;2022-07-29T15:34:21;24.90;96.50
45945;DHT22;31655;48.972;10.686;2022-07-29T15:36:51;24.70;96.40
45945;DHT22;31655;48.972;10.686;2022-07-29T15:39:19;24.80;96.60
45945;DHT22;31655;48.972;10.686;2022-07-29T15:41:45;26.60;96.90
45945;DHT22;31655;48.972;10.686;2022-07-29T15:44:11;24.50;96.30
45945;DHT22;31655;48.972;10.686;2022-07-29T15:46:36;24.30;96.80
45945;DHT22;31655;48.972;10.686;2022-07-29T15:49:20;24.20;97.70
45945;DHT22;31655;48.972;10.686;2022-07-29T15:51:46;24.30;97.30
45945;DHT22;31655;48.972;10.686;2022-07-29T15:54:12;24.20;97.80
45945;DHT22;31655;48.972;10.686;2022-07-29T15:56:37;24.00;97.80
45945;DHT22;31655;48.972;10.686;2022-07-29T15:59:03;23.90;98.20
45945;DHT22;31655;48.972;10.686;2022-07-29T16:01:28;23.80;98.40
45945;DHT22;31655;48.972;10.686;2022-07-29T16:03:57;23.90;98.50
45945;DHT22;31655;48.972;10.686;2022-07-29T16:06:22;23.70;99.00
45945;DHT22;31655;48.972;10.686;2022-07-29T16:08:48;23.70;99.40
45945;DHT22;31655;48.972;10.686;2022-07-29T16:11:13;23.60;99.70
45945;DHT22;31655;48.972;10.686;2022-07-29T16:13:39;23.50;99.90
45945;DHT22;31655;48.972;10.686;2022-07-29T16:16:04;23.40;99.90